createdAt,value
2023-05-14T00:01:41.808Z,99898.63
2023-05-14T00:04:43.760Z,99890.66
2023-05-14T00:07:45.670Z,99894.06
2023-05-14T00:10:47.527Z,99889.84
2023-05-14T00:13:50.323Z,99894.16
2023-05-14T00:16:52.236Z,99884.59
2023-05-14T00:19:54.111Z,99887.63
2023-05-14T00:22:56.432Z,99890.66
2023-05-14T00:25:58.468Z,99888.41
2023-05-14T00:29:00.476Z,99882.16
2023-05-14T00:32:03.780Z,99882.41
2023-05-14T00:35:06.136Z,99893.06
2023-05-14T00:38:08.108Z,99881.91
2023-05-14T00:41:10.004Z,99887.66
2023-05-14T00:44:11.931Z,99880.16
2023-05-14T00:47:13.918Z,99882.84
2023-05-14T00:50:16.844Z,99873.03
2023-05-14T00:53:20.717Z,99867.88
2023-05-14T00:56:23.281Z,99870.34
2023-05-14T00:59:25.930Z,99879.66
2023-05-14T01:02:27.935Z,99874.28
2023-05-14T01:05:54.116Z,99877.34
2023-05-14T01:09:01.976Z,99884.25
2023-05-14T01:12:29.844Z,99873.16
2023-05-14T01:15:34.699Z,99871.66
2023-05-14T01:18:37.071Z,99871.47
2023-05-14T01:21:43.693Z,99872.78
2023-05-14T01:24:45.726Z,99869.19
2023-05-14T01:28:18.276Z,99869.13
2023-05-14T01:31:27.975Z,99870.63
2023-05-14T01:34:31.394Z,99867.56
2023-05-14T01:37:33.660Z,99864.16
2023-05-14T01:40:36.571Z,99854.81
2023-05-14T01:43:39.487Z,99873.03
2023-05-14T01:46:41.447Z,99872.97
2023-05-14T01:49:43.635Z,99864.19
2023-05-14T01:52:45.507Z,99866.19
2023-05-14T01:55:47.451Z,99860.78
2023-05-14T01:58:49.965Z,99854.56
2023-05-14T02:01:52.010Z,99859.31
2023-05-14T02:04:54.039Z,99855.16
2023-05-14T02:07:56.065Z,99859.63
2023-05-14T02:10:58.019Z,99846.66
2023-05-14T02:14:00.244Z,99848.09
2023-05-14T02:17:02.109Z,99841.78
2023-05-14T02:20:04.498Z,99837.94
2023-05-14T02:23:06.554Z,99827.00
2023-05-14T02:26:09.873Z,99841.28
2023-05-14T02:29:11.801Z,99832.06
2023-05-14T02:32:13.847Z,99834.94
2023-05-14T02:35:15.755Z,99827.81
2023-05-14T02:38:17.797Z,99820.22
2023-05-14T02:41:20.069Z,99814.31
2023-05-14T02:44:21.932Z,99812.34
2023-05-14T02:47:23.829Z,99815.00
2023-05-14T02:50:25.997Z,99801.41
2023-05-14T02:53:28.132Z,99807.72
2023-05-14T02:56:30.043Z,99802.72
2023-05-14T02:59:32.018Z,99799.94
2023-05-14T03:02:34.735Z,99798.63
2023-05-14T03:05:37.089Z,99802.16
2023-05-14T03:08:39.002Z,99804.06
2023-05-14T03:11:40.962Z,99792.25
2023-05-14T03:14:42.873Z,99803.78
2023-05-14T03:17:44.819Z,99796.81
2023-05-14T03:20:46.733Z,99800.75
2023-05-14T03:23:48.779Z,99790.16
2023-05-14T03:26:53.529Z,99799.44
2023-05-14T03:29:55.615Z,99801.69
2023-05-14T03:32:57.898Z,99802.47
2023-05-14T03:35:59.856Z,99809.31
2023-05-14T03:39:02.255Z,99817.75
2023-05-14T03:42:04.420Z,99822.91
2023-05-14T03:45:07.194Z,99817.75
2023-05-14T03:48:09.640Z,99810.13
2023-05-14T03:51:12.625Z,99811.63
2023-05-14T03:54:14.498Z,99809.69
2023-05-14T03:57:16.468Z,99807.63
2023-05-14T04:00:18.612Z,99806.38
2023-05-14T04:03:20.503Z,99809.94
2023-05-14T04:06:22.488Z,99812.69
2023-05-14T04:09:24.416Z,99826.06
2023-05-14T04:12:26.815Z,99828.09
2023-05-14T04:15:29.388Z,99818.66
2023-05-14T04:18:34.978Z,99819.63
2023-05-14T04:21:36.886Z,99826.66
2023-05-14T04:24:38.797Z,99812.91
2023-05-14T04:27:40.660Z,99813.31
2023-05-14T04:30:42.492Z,99811.75
2023-05-14T04:33:44.382Z,99805.84
2023-05-14T04:36:46.693Z,99797.06
2023-05-14T04:39:48.564Z,99808.47
2023-05-14T04:42:50.500Z,99800.56
2023-05-14T04:45:52.767Z,99812.38
2023-05-14T04:48:54.686Z,99805.56
2023-05-14T04:51:56.601Z,99805.13
2023-05-14T04:54:58.495Z,99809.19
2023-05-14T04:58:00.433Z,99797.78
2023-05-14T05:01:05.062Z,99793.22
2023-05-14T05:04:07.864Z,99798.03
2023-05-14T05:07:09.972Z,99796.66
2023-05-14T05:10:12.004Z,99797.75
2023-05-14T05:13:14.291Z,99784.44
2023-05-14T05:16:16.213Z,99792.91
2023-05-14T05:19:18.841Z,99784.72
2023-05-14T05:22:22.240Z,99780.09
2023-05-14T05:25:24.202Z,99781.00
2023-05-14T05:28:26.029Z,99769.56
2023-05-14T05:31:27.999Z,99768.31
2023-05-14T05:34:29.951Z,99765.13
2023-05-14T05:37:31.962Z,99763.88
2023-05-14T05:40:33.972Z,99767.06
2023-05-14T05:43:35.882Z,99766.84
2023-05-14T05:46:37.930Z,99775.06
2023-05-14T05:49:39.877Z,99773.06
2023-05-14T05:52:41.886Z,99774.91
2023-05-14T05:55:43.882Z,99774.16
2023-05-14T05:58:45.785Z,99763.59
2023-05-14T06:01:48.209Z,99765.25
2023-05-14T06:04:50.203Z,99762.44
2023-05-14T06:07:53.680Z,99762.91
2023-05-14T06:10:55.582Z,99764.34
2023-05-14T06:13:57.689Z,99759.13
2023-05-14T06:16:59.908Z,99744.25
2023-05-14T06:20:01.973Z,99746.84
2023-05-14T06:23:03.889Z,99744.75
2023-05-14T06:26:05.920Z,99742.34
2023-05-14T06:29:08.593Z,99739.41
2023-05-14T06:32:10.645Z,99749.69
2023-05-14T06:35:12.541Z,99745.53
2023-05-14T06:38:14.407Z,99745.56
2023-05-14T06:41:17.093Z,99742.22
2023-05-14T06:44:19.558Z,99744.84
2023-05-14T06:47:21.865Z,99744.50
2023-05-14T06:50:24.073Z,99740.47
2023-05-14T06:53:26.143Z,99739.53
2023-05-14T06:56:28.037Z,99746.03
2023-05-14T06:59:29.934Z,99734.31
2023-05-14T07:02:32.320Z,99725.56
2023-05-14T07:05:34.242Z,99730.47
2023-05-14T07:08:36.154Z,99730.28
2023-05-14T07:11:38.003Z,99734.19
2023-05-14T07:14:40.269Z,99734.75
2023-05-14T07:17:42.118Z,99734.69
2023-05-14T07:20:44.080Z,99729.56
2023-05-14T07:23:45.979Z,99728.81
2023-05-14T07:26:48.034Z,99732.38
2023-05-14T07:29:50.398Z,99727.09
2023-05-14T07:32:52.371Z,99726.34
2023-05-14T07:35:54.465Z,99727.34
2023-05-14T07:38:56.485Z,99722.50
2023-05-14T07:41:58.421Z,99725.75
2023-05-14T07:45:00.353Z,99722.97
2023-05-14T07:48:02.372Z,99720.69
2023-05-14T07:51:04.648Z,99728.50
2023-05-14T07:54:06.691Z,99716.25
2023-05-14T07:57:08.635Z,99717.50
2023-05-14T08:00:11.299Z,99713.22
2023-05-14T08:03:15.810Z,99712.34
2023-05-14T08:06:17.691Z,99709.75
2023-05-14T08:09:19.500Z,99703.72
2023-05-14T08:12:21.330Z,99698.97
2023-05-14T08:15:24.547Z,99696.69
2023-05-14T08:18:28.364Z,99692.97
2023-05-14T08:21:30.292Z,99682.19
2023-05-14T08:24:32.130Z,99679.47
2023-05-14T08:27:34.060Z,99679.66
2023-05-14T08:30:35.947Z,99687.06
2023-05-14T08:33:37.827Z,99674.19
2023-05-14T08:36:39.715Z,99670.06
2023-05-14T08:39:41.556Z,99678.88
2023-05-14T08:42:45.225Z,99662.25
2023-05-14T08:45:49.804Z,99668.91
2023-05-14T08:49:00.664Z,99661.72
2023-05-14T08:52:02.814Z,99657.03
2023-05-14T08:55:06.324Z,99659.53
2023-05-14T08:58:08.320Z,99659.25
2023-05-14T09:01:10.194Z,99652.41
2023-05-14T09:04:13.264Z,99652.94
2023-05-14T09:07:15.958Z,99653.22
2023-05-14T09:10:18.683Z,99645.97
2023-05-14T09:13:20.682Z,99646.47
2023-05-14T09:16:23.972Z,99639.34
2023-05-14T09:19:26.332Z,99635.22
2023-05-14T09:22:31.918Z,99641.78
2023-05-14T09:25:33.871Z,99628.72
2023-05-14T09:28:35.728Z,99627.81
2023-05-14T09:31:37.628Z,99620.88
2023-05-14T09:34:40.049Z,99619.66
2023-05-14T09:37:43.797Z,99614.78
2023-05-14T09:40:46.620Z,99605.66
2023-05-14T09:43:49.438Z,99595.41
2023-05-14T09:46:53.166Z,99589.81
2023-05-14T09:49:55.082Z,99583.53
2023-05-14T09:52:57.006Z,99579.72
2023-05-14T09:55:58.947Z,99584.16
2023-05-14T09:59:01.219Z,99577.25
2023-05-14T10:02:05.622Z,99582.38
2023-05-14T10:05:08.380Z,99572.69
2023-05-14T10:08:20.074Z,99571.25
2023-05-14T10:11:27.681Z,99573.22
2023-05-14T10:14:36.090Z,99552.72
2023-05-14T10:17:41.041Z,99561.00
2023-05-14T10:20:44.115Z,99563.13
2023-05-14T10:23:46.897Z,99557.69
2023-05-14T10:26:49.055Z,99548.22
2023-05-14T10:29:55.141Z,99552.84
2023-05-14T10:33:08.185Z,99542.59
2023-05-14T10:36:10.327Z,99534.13
2023-05-14T10:39:12.238Z,99536.31
2023-05-14T10:42:19.804Z,99523.34
2023-05-14T10:45:23.058Z,99516.84
2023-05-14T10:48:26.067Z,99515.66
2023-05-14T10:55:01.942Z,99498.19
2023-05-14T10:58:05.992Z,99496.09
2023-05-14T11:01:10.187Z,99488.34
2023-05-14T11:04:24.295Z,99476.16
2023-05-14T11:07:50.110Z,99457.31
2023-05-14T11:10:52.390Z,99450.53
2023-05-14T11:13:54.999Z,99453.25
2023-05-14T11:16:57.629Z,99448.34
2023-05-14T11:20:00.281Z,99452.06
2023-05-14T11:23:02.219Z,99442.72
2023-05-14T11:26:04.312Z,99442.00
2023-05-14T11:29:06.204Z,99432.75
2023-05-14T11:32:08.232Z,99428.94
2023-05-14T11:35:10.327Z,99434.66
2023-05-14T11:38:19.347Z,99425.09
2023-05-14T11:41:21.693Z,99419.88
2023-05-14T11:44:23.939Z,99426.09
2023-05-14T11:47:25.872Z,99427.88
2023-05-14T11:50:28.007Z,99428.31
2023-05-14T11:53:31.123Z,99436.31
2023-05-14T11:56:33.079Z,99425.88
2023-05-14T11:59:35.052Z,99422.09
2023-05-14T12:02:37.846Z,99423.19
2023-05-14T12:05:40.270Z,99414.50
2023-05-14T12:08:42.440Z,99400.94
2023-05-14T12:11:46.445Z,99408.09
2023-05-14T12:14:50.072Z,99412.56
2023-05-14T12:17:52.346Z,99408.97
2023-05-14T12:20:54.293Z,99414.00
2023-05-14T12:24:02.059Z,99397.69
2023-05-14T12:27:04.044Z,99397.81
2023-05-14T12:30:20.658Z,99390.94
2023-05-14T12:33:26.658Z,99387.69
2023-05-14T12:36:30.829Z,99381.00
2023-05-14T12:39:34.263Z,99364.56
2023-05-14T12:42:36.508Z,99377.91
2023-05-14T12:45:38.490Z,99382.78
2023-05-14T12:48:40.308Z,99371.13
2023-05-14T12:51:42.149Z,99376.56
2023-05-14T12:54:44.049Z,99368.88
2023-05-14T12:57:45.951Z,99365.09
2023-05-14T13:00:48.055Z,99364.16
2023-05-14T13:03:50.182Z,99369.31
2023-05-14T13:06:52.456Z,99362.03
2023-05-14T13:09:54.487Z,99367.19
2023-05-14T13:12:56.613Z,99364.69
2023-05-14T13:15:58.534Z,99353.41
2023-05-14T13:19:00.567Z,99359.63
2023-05-14T13:22:02.556Z,99352.19
2023-05-14T13:25:05.019Z,99359.91
2023-05-14T13:28:06.966Z,99351.75
2023-05-14T13:31:11.354Z,99348.84
2023-05-14T13:34:13.656Z,99340.88
2023-05-14T13:37:15.641Z,99334.91
2023-05-14T13:40:17.575Z,99330.41
2023-05-14T13:43:19.466Z,99328.63
2023-05-14T13:46:21.571Z,99328.09
2023-05-14T13:49:23.510Z,99321.06
2023-05-14T13:52:25.685Z,99327.28
2023-05-14T13:55:27.610Z,99319.66
2023-05-14T13:58:29.490Z,99319.94
2023-05-14T14:01:31.805Z,99319.94
2023-05-14T14:04:33.999Z,99322.41
2023-05-14T14:07:35.922Z,99309.53
2023-05-14T14:10:40.868Z,99309.28
2023-05-14T14:13:45.040Z,99311.31
2023-05-14T14:16:48.347Z,99310.41
2023-05-14T14:19:50.292Z,99306.44
2023-05-14T14:22:52.181Z,99301.38
2023-05-14T14:25:53.991Z,99292.22
2023-05-14T14:28:55.822Z,99291.47
2023-05-14T14:31:57.736Z,99284.50
2023-05-14T14:34:59.627Z,99293.59
2023-05-14T14:38:01.762Z,99278.59
2023-05-14T14:41:03.620Z,99277.47
2023-05-14T14:44:06.012Z,99284.91
2023-05-14T14:47:07.902Z,99277.66
2023-05-14T14:50:09.774Z,99292.78
2023-05-14T14:53:11.646Z,99289.81
2023-05-14T14:56:13.531Z,99285.94
2023-05-14T14:59:15.376Z,99299.25
2023-05-14T15:02:17.403Z,99301.44
2023-05-14T15:05:19.267Z,99306.97
2023-05-14T15:08:26.246Z,99310.28
2023-05-14T15:11:29.090Z,99314.94
2023-05-14T15:14:30.921Z,99309.72
2023-05-14T15:17:32.999Z,99308.09
2023-05-14T15:20:34.964Z,99307.50
2023-05-14T15:23:36.869Z,99312.59
2023-05-14T15:26:38.882Z,99311.34
2023-05-14T15:29:41.554Z,99311.22
2023-05-14T15:32:44.752Z,99311.66
2023-05-14T15:35:46.739Z,99302.44
2023-05-14T15:38:48.685Z,99306.81
2023-05-14T15:41:50.699Z,99303.69
2023-05-14T15:44:52.582Z,99303.00
2023-05-14T15:47:54.807Z,99308.88
2023-05-14T15:50:56.882Z,99293.13
2023-05-14T15:53:58.926Z,99290.09
2023-05-14T15:57:01.371Z,99284.63
2023-05-14T16:00:10.411Z,99284.91
2023-05-14T16:03:12.850Z,99283.81
2023-05-14T16:06:14.835Z,99286.41
2023-05-14T16:09:16.678Z,99290.22
2023-05-14T16:12:18.685Z,99291.19
2023-05-14T16:15:20.864Z,99280.50
2023-05-14T16:18:25.179Z,99269.53
2023-05-14T16:21:27.392Z,99268.59
2023-05-14T16:24:29.269Z,99273.38
2023-05-14T16:27:31.669Z,99275.28
2023-05-14T16:30:33.683Z,99270.34
2023-05-14T16:33:35.835Z,99279.13
2023-05-14T16:36:37.778Z,99268.47
2023-05-14T16:39:39.813Z,99276.75
2023-05-14T16:42:41.995Z,99260.47
2023-05-14T16:45:43.855Z,99266.66
2023-05-14T16:48:45.918Z,99268.47
2023-05-14T16:51:48.022Z,99264.88
2023-05-14T16:54:49.865Z,99259.63
2023-05-14T16:57:51.694Z,99261.22
2023-05-14T17:00:53.561Z,99238.34
2023-05-14T17:03:56.171Z,99225.31
2023-05-14T17:06:58.197Z,99213.00
2023-05-14T17:10:00.772Z,99210.16
2023-05-14T17:13:03.289Z,99201.16
2023-05-14T17:16:05.650Z,99186.06
2023-05-14T17:19:08.763Z,99181.06
2023-05-14T17:22:10.945Z,99186.59
2023-05-14T17:25:13.104Z,99185.59
2023-05-14T17:28:15.156Z,99183.91
2023-05-14T17:31:17.168Z,99190.97
2023-05-14T17:34:19.049Z,99201.59
2023-05-14T17:37:21.020Z,99202.53
2023-05-14T17:40:22.931Z,99201.84
2023-05-14T17:43:24.835Z,99209.63
2023-05-14T17:46:27.059Z,99204.66
2023-05-14T17:49:29.138Z,99205.75
2023-05-14T17:52:31.057Z,99206.31
2023-05-14T17:55:33.198Z,99210.16
2023-05-14T17:58:36.149Z,99199.94
2023-05-14T18:01:38.040Z,99202.16
2023-05-14T18:04:39.835Z,99193.59
2023-05-14T18:07:41.718Z,99195.25
2023-05-14T18:10:43.658Z,99201.06
2023-05-14T18:13:45.978Z,99200.00
2023-05-14T18:16:48.377Z,99201.09
2023-05-14T18:19:50.322Z,99193.50
2023-05-14T18:22:52.452Z,99190.59
2023-05-14T18:25:54.738Z,99183.50
2023-05-14T18:28:58.157Z,99193.28
2023-05-14T18:32:00.005Z,99180.31
2023-05-14T18:35:02.094Z,99194.53
2023-05-14T18:38:04.152Z,99182.25
2023-05-14T18:41:06.111Z,99183.59
2023-05-14T18:44:08.033Z,99172.44
2023-05-14T18:47:10.106Z,99174.03
2023-05-14T18:50:11.945Z,99181.16
2023-05-14T18:53:15.032Z,99172.41
2023-05-14T18:56:16.958Z,99168.16
2023-05-14T18:59:20.162Z,99167.72
2023-05-14T19:02:22.153Z,99168.56
2023-05-14T19:05:24.393Z,99162.88
2023-05-14T19:08:26.446Z,99177.94
2023-05-14T19:11:28.638Z,99181.94
2023-05-14T19:14:31.320Z,99164.56
2023-05-14T19:17:33.494Z,99167.50
2023-05-14T19:20:35.627Z,99160.78
2023-05-14T19:23:37.679Z,99160.31
2023-05-14T19:26:39.672Z,99141.38
2023-05-14T19:29:41.891Z,99150.41
2023-05-14T19:32:43.956Z,99135.84
2023-05-14T19:35:46.699Z,99120.31
2023-05-14T19:38:48.734Z,99127.59
2023-05-14T19:41:50.573Z,99122.69
2023-05-14T19:44:52.711Z,99113.72
2023-05-14T19:47:54.728Z,99120.66
2023-05-14T19:50:59.058Z,99118.66
2023-05-14T19:54:01.202Z,99107.34
2023-05-14T19:57:03.492Z,99104.28
2023-05-14T20:00:08.888Z,99097.94
2023-05-14T20:03:13.664Z,99092.63
2023-05-14T20:06:17.404Z,99089.38
2023-05-14T20:09:20.132Z,99083.38
2023-05-14T20:12:22.031Z,99086.88
2023-05-14T20:15:23.925Z,99079.72
2023-05-14T20:18:25.980Z,99077.69
2023-05-14T20:21:28.168Z,99081.91
2023-05-14T20:24:30.054Z,99071.09
2023-05-14T20:27:32.736Z,99071.22
2023-05-14T20:30:34.685Z,99064.03
2023-05-14T20:33:36.556Z,99055.31
2023-05-14T20:36:38.443Z,99048.19
2023-05-14T20:39:40.385Z,99037.56
2023-05-14T20:42:42.383Z,99041.53
2023-05-14T20:45:44.265Z,99034.84
2023-05-14T20:48:47.341Z,99047.69
2023-05-14T20:51:49.220Z,99044.03
2023-05-14T20:54:51.080Z,99047.91
2023-05-14T20:57:52.948Z,99040.97
2023-05-14T21:00:54.872Z,99033.66
2023-05-14T21:03:56.995Z,99040.97
2023-05-14T21:06:58.996Z,99025.56
2023-05-14T21:10:01.852Z,99005.66
2023-05-14T21:13:03.876Z,98996.94
2023-05-14T21:16:06.164Z,98990.72
2023-05-14T21:19:08.254Z,98987.28
2023-05-14T21:22:10.157Z,98989.75
2023-05-14T21:25:12.138Z,98981.88
2023-05-14T21:28:14.076Z,98980.72
2023-05-14T21:31:16.140Z,98973.50
2023-05-14T21:34:17.937Z,98972.56
2023-05-14T21:37:21.718Z,98975.25
2023-05-14T21:40:23.664Z,98967.41
2023-05-14T21:43:25.972Z,98963.06
2023-05-14T21:46:28.994Z,98973.16
2023-05-14T21:49:31.198Z,98969.66
2023-05-14T21:52:33.586Z,98962.38
2023-05-14T21:55:35.826Z,98966.72
2023-05-14T21:58:37.793Z,98963.44
2023-05-14T22:02:04.810Z,98965.88
2023-05-14T22:05:01.531Z,98962.72
2023-05-14T22:08:03.417Z,98962.03
2023-05-14T22:11:05.410Z,98948.53
2023-05-14T22:14:07.272Z,98950.84
2023-05-14T22:17:09.558Z,98957.28
2023-05-14T22:20:11.590Z,98948.97
2023-05-14T22:23:13.387Z,98937.41
2023-05-14T22:26:16.128Z,98931.28
2023-05-14T22:29:18.006Z,98937.06
2023-05-14T22:32:19.823Z,98936.50
2023-05-14T22:35:21.724Z,98930.06
2023-05-14T22:38:23.611Z,98921.72
2023-05-14T22:41:26.754Z,98916.44
2023-05-14T22:44:30.059Z,98914.28
2023-05-14T22:47:32.060Z,98904.88
2023-05-14T22:50:34.065Z,98903.38
2023-05-14T22:53:35.996Z,98909.78
2023-05-14T22:56:38.289Z,98908.78
2023-05-14T22:59:40.231Z,98903.78
2023-05-14T23:02:42.241Z,98900.97
2023-05-14T23:05:44.210Z,98904.19
2023-05-14T23:08:46.257Z,98893.50
2023-05-14T23:11:48.128Z,98892.75
2023-05-14T23:14:50.115Z,98898.88
2023-05-14T23:17:52.150Z,98890.75
2023-05-14T23:20:54.101Z,98889.47
2023-05-14T23:23:55.935Z,98886.50
2023-05-14T23:26:57.923Z,98886.59
2023-05-14T23:29:59.844Z,98891.63
2023-05-14T23:33:01.816Z,98890.66
2023-05-14T23:36:03.902Z,98887.84
2023-05-14T23:39:05.945Z,98881.50
2023-05-14T23:42:07.806Z,98885.75
2023-05-14T23:45:10.214Z,98871.53
2023-05-14T23:48:12.064Z,98884.69
2023-05-14T23:51:13.894Z,98887.00
2023-05-14T23:54:17.296Z,98890.06
2023-05-14T23:57:19.339Z,98886.59
